Time;durP1;ratioP1;P1;durP2;ratioP2;P2;SDS_P1;SDS_P2;PMS_P1;PMS_P2;Temp;Humidity;BMP_temperature;BMP_pressure;BME280_temperature;BME280_humidity;BME280_pressure;Samples;Min_cycle;Max_cycle;Signal;HPM_P1;HPM_P2
2022/03/13 00:00:15;;;;;;;27.48;18.83;;;5.50;78.70;;;;;;4980958;28;20037;-63
2022/03/13 00:02:45;;;;;;;25.75;19.30;;;5.60;78.70;;;;;;5014314;28;20519;-63
2022/03/13 00:05:16;;;;;;;25.90;18.48;;;5.60;78.50;;;;;;4981427;28;20046;-63
2022/03/13 00:07:45;;;;;;;29.80;19.08;;;5.60;78.20;;;;;;4997772;28;20034;-63
2022/03/13 00:10:20;;;;;;;26.50;17.60;;;5.60;78.20;;;;;;4997383;28;20133;-63
2022/03/13 00:12:48;;;;;;;22.20;15.77;;;5.60;78.40;;;;;;5014649;28;20073;-63
2022/03/13 00:15:25;;;;;;;22.48;17.00;;;5.60;78.40;;;;;;5005969;28;20176;-63
2022/03/13 00:17:53;;;;;;;23.00;15.80;;;5.60;78.60;;;;;;4982786;28;20051;-63
2022/03/13 00:20:22;;;;;;;24.42;16.50;;;5.60;78.70;;;;;;5042790;28;20132;-63
2022/03/13 00:22:49;;;;;;;22.67;14.93;;;5.60;78.50;;;;;;5014879;28;20042;-63
2022/03/13 00:25:17;;;;;;;25.38;16.75;;;5.60;78.50;;;;;;5030559;28;20045;-63
2022/03/13 00:27:44;;;;;;;18.05;14.45;;;5.60;78.20;;;;;;5008879;28;20406;-63
2022/03/13 00:30:12;;;;;;;22.33;15.27;;;5.60;78.30;;;;;;5000613;28;20045;-63
2022/03/13 00:32:41;;;;;;;19.42;14.43;;;5.70;78.40;;;;;;5009364;28;20129;-63
2022/03/13 00:35:10;;;;;;;21.92;15.05;;;5.70;78.20;;;;;;5031606;28;20041;-63
2022/03/13 00:37:38;;;;;;;21.60;14.52;;;5.70;78.30;;;;;;5030984;28;20061;-63
2022/03/13 00:40:06;;;;;;;17.70;12.95;;;5.70;78.30;;;;;;5014337;28;20522;-63
2022/03/13 00:42:34;;;;;;;24.02;14.27;;;5.80;77.60;;;;;;5025551;28;20125;-63
2022/03/13 00:45:02;;;;;;;21.05;14.32;;;5.70;77.50;;;;;;5031991;28;20046;-63
2022/03/13 00:47:29;;;;;;;19.05;13.90;;;5.70;78.10;;;;;;5021429;28;20083;-63
2022/03/13 00:49:57;;;;;;;21.10;13.85;;;5.80;78.40;;;;;;5032590;28;20403;-63
2022/03/13 00:52:24;;;;;;;20.17;14.95;;;5.70;78.30;;;;;;5019481;28;20041;-63
2022/03/13 00:54:51;;;;;;;20.35;14.50;;;5.70;78.40;;;;;;5015308;28;20034;-63
2022/03/13 00:57:19;;;;;;;18.38;14.00;;;5.70;78.40;;;;;;5024877;28;20403;-63
2022/03/13 00:59:46;;;;;;;21.08;14.40;;;5.70;78.50;;;;;;5014943;28;20041;-63
2022/03/13 01:02:15;;;;;;;24.02;15.35;;;5.70;78.60;;;;;;5015177;28;20052;-63
2022/03/13 01:04:50;;;;;;;20.00;13.05;;;5.80;78.60;;;;;;5023832;28;20066;-62
2022/03/13 01:07:18;;;;;;;19.38;13.05;;;5.80;78.00;;;;;;5019815;28;20411;-64
2022/03/13 01:09:45;;;;;;;18.92;11.60;;;5.80;77.50;;;;;;5014849;28;20037;-63
2022/03/13 01:12:13;;;;;;;17.15;12.32;;;5.90;77.30;;;;;;5024974;28;20049;-63
2022/03/13 01:14:41;;;;;;;18.10;11.93;;;5.90;77.40;;;;;;5009387;28;20042;-63
2022/03/13 01:17:09;;;;;;;14.93;11.48;;;5.90;77.40;;;;;;5008314;28;20049;-64
2022/03/13 01:19:37;;;;;;;18.02;11.68;;;6.00;77.30;;;;;;5014216;28;20049;-63
2022/03/13 01:22:06;;;;;;;19.48;11.90;;;5.90;77.20;;;;;;5013828;28;20132;-63
2022/03/13 01:24:45;;;;;;;13.38;9.20;;;6.00;77.30;;;;;;5022038;28;20107;-65
2022/03/13 01:27:16;;;;;;;15.73;10.68;;;6.00;77.10;;;;;;5001137;28;20045;-63
2022/03/13 01:29:45;;;;;;;13.90;9.70;;;6.00;76.70;;;;;;5001821;28;20049;-63
2022/03/13 01:32:17;;;;;;;14.45;9.30;;;6.10;76.40;;;;;;5027197;28;20247;-64
2022/03/13 01:34:48;;;;;;;13.60;9.82;;;6.10;76.20;;;;;;5037586;28;20040;-64
2022/03/13 01:37:29;;;;;;;15.43;8.20;;;6.10;76.10;;;;;;5029839;28;20103;-64
2022/03/13 01:40:04;;;;;;;17.73;8.85;;;6.10;75.90;;;;;;4991348;28;20033;-65
2022/03/13 01:42:32;;;;;;;12.63;7.68;;;6.10;76.40;;;;;;4999335;28;20125;-63
2022/03/13 01:44:59;;;;;;;11.30;8.20;;;6.10;75.80;;;;;;5017331;28;20037;-64
2022/03/13 01:47:27;;;;;;;11.00;8.00;;;6.10;75.70;;;;;;5028087;28;20033;-63
2022/03/13 01:49:55;;;;;;;13.18;8.60;;;6.20;76.00;;;;;;5002036;28;20069;-63
2022/03/13 01:52:28;;;;;;;13.73;8.57;;;6.10;76.30;;;;;;5007835;28;20044;-64
2022/03/13 01:54:57;;;;;;;12.38;7.95;;;6.10;76.20;;;;;;5017905;28;20049;-63
2022/03/13 01:57:25;;;;;;;11.25;7.60;;;6.10;75.90;;;;;;5022340;28;20519;-64
2022/03/13 01:59:58;;;;;;;11.10;7.18;;;6.10;76.10;;;;;;5018069;28;20403;-65
2022/03/13 02:02:29;;;;;;;9.48;7.13;;;6.10;76.30;;;;;;4996824;28;20491;-63
2022/03/13 02:04:57;;;;;;;11.93;7.78;;;6.10;76.50;;;;;;5018237;28;20088;-63
2022/03/13 02:07:29;;;;;;;14.90;9.13;;;6.10;76.40;;;;;;5004534;28;20037;-64
2022/03/13 02:09:57;;;;;;;14.00;8.98;;;6.00;76.40;;;;;;5042200;28;20386;-63
2022/03/13 02:12:26;;;;;;;13.57;9.70;;;6.00;76.70;;;;;;4990806;28;20041;-63
2022/03/13 02:14:54;;;;;;;12.75;9.50;;;6.00;77.00;;;;;;5016782;28;20037;-65
2022/03/13 02:17:34;;;;;;;15.88;9.63;;;6.00;77.10;;;;;;5027680;28;20053;-63
2022/03/13 02:20:03;;;;;;;16.67;9.75;;;5.90;77.20;;;;;;5011813;28;20509;-64
2022/03/13 02:22:31;;;;;;;15.30;10.38;;;5.90;77.30;;;;;;5029815;28;20037;-64
2022/03/13 02:24:59;;;;;;;13.43;9.65;;;5.80;77.70;;;;;;5000649;28;20149;-64
2022/03/13 02:27:29;;;;;;;15.02;9.93;;;5.80;77.80;;;;;;5033845;28;20049;-63
2022/03/13 02:29:57;;;;;;;14.70;10.43;;;5.80;77.50;;;;;;5044927;28;20132;-63
2022/03/13 02:32:24;;;;;;;15.95;10.18;;;5.80;77.70;;;;;;5034803;28;20038;-63
2022/03/13 02:34:54;;;;;;;13.80;8.70;;;5.80;77.90;;;;;;5000479;28;20041;-63
2022/03/13 02:37:36;;;;;;;10.38;8.10;;;5.80;77.30;;;;;;5017074;28;20139;-63
2022/03/13 02:40:05;;;;;;;14.05;8.27;;;5.80;77.10;;;;;;5008714;28;20037;-63
2022/03/13 02:42:33;;;;;;;10.57;8.02;;;5.80;77.10;;;;;;5028270;28;20049;-64
2022/03/13 02:45:01;;;;;;;14.50;8.80;;;5.80;77.00;;;;;;4999738;28;20500;-64
2022/03/13 02:47:29;;;;;;;11.38;8.23;;;5.90;76.90;;;;;;5029810;28;20046;-65
2022/03/13 02:49:56;;;;;;;15.18;8.55;;;5.90;76.80;;;;;;5027531;28;20570;-64
2022/03/13 02:52:24;;;;;;;12.95;7.97;;;5.90;76.80;;;;;;5044534;28;20045;-64
2022/03/13 02:54:51;;;;;;;12.35;8.00;;;5.90;76.40;;;;;;5016727;28;20061;-63
2022/03/13 02:57:19;;;;;;;16.30;8.60;;;5.90;76.40;;;;;;5006740;28;20120;-66
2022/03/13 02:59:46;;;;;;;14.52;8.82;;;5.90;76.40;;;;;;5016015;28;20037;-63
2022/03/13 03:02:14;;;;;;;16.63;8.50;;;6.00;76.00;;;;;;5036941;28;20454;-64
2022/03/13 03:04:43;;;;;;;13.52;8.05;;;6.00;75.90;;;;;;5036416;28;20072;-63
2022/03/13 03:07:11;;;;;;;12.07;7.93;;;6.00;75.80;;;;;;5029375;28;20041;-66
2022/03/13 03:09:38;;;;;;;12.27;7.75;;;6.00;75.90;;;;;;5000622;28;20056;-63
2022/03/13 03:12:06;;;;;;;9.43;7.53;;;6.00;76.10;;;;;;5016618;28;20037;-63
2022/03/13 03:14:34;;;;;;;11.68;7.07;;;6.00;76.30;;;;;;5026034;28;20049;-63
2022/03/13 03:17:03;;;;;;;10.63;7.38;;;6.00;75.90;;;;;;5015407;28;20395;-63
2022/03/13 03:19:30;;;;;;;13.43;8.50;;;6.10;75.90;;;;;;5016477;28;20125;-63
2022/03/13 03:21:58;;;;;;;12.82;7.75;;;6.10;75.70;;;;;;5015931;28;20499;-64
2022/03/13 03:24:25;;;;;;;12.90;7.13;;;6.10;75.60;;;;;;5045530;28;20048;-63
2022/03/13 03:26:53;;;;;;;12.93;7.30;;;6.10;75.40;;;;;;5027585;28;20404;-64
2022/03/13 03:29:24;;;;;;;11.35;7.07;;;6.10;75.20;;;;;;5015735;28;20060;-63
2022/03/13 03:31:52;;;;;;;14.25;6.72;;;6.10;75.00;;;;;;4997891;28;20095;-63
2022/03/13 03:34:22;;;;;;;12.05;6.65;;;6.10;75.10;;;;;;5022084;28;20131;-63
2022/03/13 03:36:56;;;;;;;10.43;8.07;;;6.10;74.90;;;;;;5019475;28;20115;-63
2022/03/13 03:39:25;;;;;;;14.93;8.07;;;6.10;74.80;;;;;;5033877;28;20562;-64
2022/03/13 03:41:53;;;;;;;10.15;7.05;;;6.00;74.90;;;;;;5024287;28;20041;-63
2022/03/13 03:44:22;;;;;;;12.77;7.90;;;6.00;75.40;;;;;;4999366;28;20594;-63
2022/03/13 03:46:50;;;;;;;8.63;6.38;;;6.00;75.70;;;;;;5012553;28;20068;-64
2022/03/13 03:49:18;;;;;;;9.82;5.63;;;6.00;75.90;;;;;;5015391;28;20041;-63
2022/03/13 03:51:45;;;;;;;10.68;6.30;;;6.00;75.50;;;;;;4995735;28;20049;-63
2022/03/13 03:54:14;;;;;;;9.30;6.32;;;6.00;75.50;;;;;;4999578;28;20053;-63
2022/03/13 03:56:42;;;;;;;11.13;6.97;;;6.00;75.60;;;;;;5008536;28;20487;-64
2022/03/13 03:59:10;;;;;;;11.60;6.10;;;6.00;76.00;;;;;;5016112;28;20403;-63
2022/03/13 04:01:39;;;;;;;11.38;6.43;;;6.00;76.20;;;;;;4994890;28;20466;-63
2022/03/13 04:04:09;;;;;;;7.65;5.43;;;6.00;76.40;;;;;;5033290;28;20045;-63
2022/03/13 04:06:38;;;;;;;11.68;7.55;;;6.00;76.60;;;;;;5015899;28;20395;-63
2022/03/13 04:09:06;;;;;;;10.32;6.38;;;6.00;76.50;;;;;;5034349;28;20051;-63
2022/03/13 04:11:35;;;;;;;9.27;6.50;;;6.00;76.30;;;;;;5016765;28;20398;-63
2022/03/13 04:14:03;;;;;;;8.80;5.72;;;6.00;76.30;;;;;;5034358;28;20065;-63
2022/03/13 04:16:31;;;;;;;9.23;6.05;;;6.00;76.20;;;;;;5016574;28;20160;-63
2022/03/13 04:18:59;;;;;;;12.20;6.25;;;6.00;75.80;;;;;;5034078;28;20052;-64
2022/03/13 04:21:26;;;;;;;8.25;5.45;;;6.10;75.90;;;;;;5034175;28;20077;-63
2022/03/13 04:23:54;;;;;;;7.03;5.35;;;6.10;75.70;;;;;;5016621;28;20514;-63
2022/03/13 04:26:25;;;;;;;9.65;6.70;;;6.20;75.60;;;;;;5016670;28;20049;-63
2022/03/13 04:28:52;;;;;;;11.02;6.75;;;6.20;76.40;;;;;;5016444;28;20037;-63
2022/03/13 04:31:20;;;;;;;10.10;6.10;;;6.20;76.50;;;;;;5033976;28;20056;-63
2022/03/13 04:33:48;;;;;;;10.30;6.75;;;6.20;76.60;;;;;;4999952;28;20104;-63
2022/03/13 04:36:25;;;;;;;9.20;6.05;;;6.20;76.80;;;;;;5033832;28;20399;-64
2022/03/13 04:38:52;;;;;;;13.25;5.95;;;6.20;76.90;;;;;;5016139;28;20490;-63
2022/03/13 04:41:20;;;;;;;8.48;6.13;;;6.20;76.50;;;;;;5016120;28;20041;-64
2022/03/13 04:43:47;;;;;;;10.25;6.10;;;6.20;76.30;;;;;;5016282;28;20095;-63
2022/03/13 04:46:15;;;;;;;9.85;6.95;;;6.20;76.70;;;;;;5016268;28;20427;-63
2022/03/13 04:48:43;;;;;;;10.07;6.22;;;6.20;76.90;;;;;;5033917;28;20049;-63
2022/03/13 04:51:10;;;;;;;9.55;6.25;;;6.20;77.00;;;;;;5000145;28;20057;-63
2022/03/13 04:53:38;;;;;;;8.20;5.35;;;6.20;76.70;;;;;;5016004;28;20136;-63
2022/03/13 04:56:06;;;;;;;10.27;6.30;;;6.30;76.30;;;;;;5016233;28;20055;-63
2022/03/13 04:58:34;;;;;;;8.88;6.03;;;6.30;76.10;;;;;;5033675;28;20053;-64
2022/03/13 05:01:02;;;;;;;7.47;5.05;;;6.30;76.20;;;;;;4998970;28;20045;-63
2022/03/13 05:03:33;;;;;;;7.63;4.97;;;6.30;76.70;;;;;;5015805;28;20115;-63
2022/03/13 05:06:05;;;;;;;9.38;5.47;;;6.30;77.00;;;;;;5033810;28;20380;-63
2022/03/13 05:08:33;;;;;;;9.20;5.72;;;6.30;76.70;;;;;;5016170;28;20064;-63
2022/03/13 05:11:03;;;;;;;8.48;5.15;;;6.30;76.80;;;;;;4999520;28;20152;-63
2022/03/13 05:13:30;;;;;;;8.07;4.88;;;6.30;76.90;;;;;;5033434;28;20041;-63
2022/03/13 05:15:58;;;;;;;8.00;4.70;;;6.30;77.30;;;;;;5033641;28;20132;-63
2022/03/13 05:18:26;;;;;;;6.90;4.78;;;6.30;77.40;;;;;;5015876;28;20395;-63
2022/03/13 05:20:53;;;;;;;11.73;4.93;;;6.30;77.40;;;;;;5016207;28;20095;-63
2022/03/13 05:23:21;;;;;;;8.60;5.13;;;6.40;77.00;;;;;;4999815;28;20144;-63
2022/03/13 05:25:48;;;;;;;9.25;5.47;;;6.40;76.40;;;;;;5032167;28;20053;-63
2022/03/13 05:28:16;;;;;;;11.45;6.30;;;6.40;76.10;;;;;;5033286;28;20048;-63
2022/03/13 05:30:44;;;;;;;8.48;5.28;;;6.40;75.70;;;;;;5033330;28;20076;-63
2022/03/13 05:33:12;;;;;;;7.40;5.90;;;6.40;76.00;;;;;;5015544;28;20159;-63
2022/03/13 05:35:41;;;;;;;7.70;5.43;;;6.40;76.30;;;;;;5033414;28;20562;-63
2022/03/13 05:38:09;;;;;;;8.70;5.13;;;6.40;76.70;;;;;;5015803;28;20124;-64
2022/03/13 05:40:36;;;;;;;6.97;4.30;;;6.50;76.50;;;;;;5033035;28;20046;-63
2022/03/13 05:43:04;;;;;;;5.63;4.85;;;6.50;76.40;;;;;;5033437;28;20052;-63
2022/03/13 05:45:36;;;;;;;7.10;4.63;;;6.50;76.10;;;;;;5016180;28;20523;-63
2022/03/13 05:48:10;;;;;;;7.03;5.18;;;6.50;75.80;;;;;;4999490;28;20050;-63
2022/03/13 05:50:38;;;;;;;7.65;4.53;;;6.50;75.40;;;;;;5015517;28;20361;-63
2022/03/13 05:53:05;;;;;;;7.20;4.57;;;6.50;75.20;;;;;;4999558;28;20053;-63
2022/03/13 05:55:33;;;;;;;6.47;5.07;;;6.50;75.50;;;;;;5015714;28;20048;-63
2022/03/13 05:58:01;;;;;;;6.07;3.95;;;6.50;75.50;;;;;;5015472;28;20091;-63
2022/03/13 06:00:32;;;;;;;6.38;4.18;;;6.60;76.00;;;;;;5015397;28;20475;-63
2022/03/13 06:03:01;;;;;;;8.23;4.05;;;6.60;76.30;;;;;;5015124;28;20123;-63
2022/03/13 06:05:32;;;;;;;6.53;4.03;;;6.60;76.30;;;;;;4999160;28;20072;-63
2022/03/13 06:08:00;;;;;;;7.80;5.05;;;6.60;76.00;;;;;;5031894;28;20049;-63
2022/03/13 06:10:28;;;;;;;6.03;4.60;;;6.60;75.90;;;;;;5032909;28;20048;-63
2022/03/13 06:12:56;;;;;;;8.75;4.57;;;6.60;76.30;;;;;;5033053;28;20037;-63
2022/03/13 06:15:24;;;;;;;9.20;4.97;;;6.60;76.70;;;;;;5002689;28;20045;-63
2022/03/13 06:17:53;;;;;;;8.18;4.30;;;6.60;77.60;;;;;;5018583;28;20060;-63
2022/03/13 06:20:21;;;;;;;10.05;5.03;;;6.60;77.70;;;;;;5036580;28;20049;-63
2022/03/13 06:22:48;;;;;;;6.10;4.35;;;6.60;77.00;;;;;;5035176;28;20042;-63
2022/03/13 06:25:17;;;;;;;8.68;4.47;;;6.60;77.80;;;;;;5018793;28;20065;-63
2022/03/13 06:27:45;;;;;;;10.45;7.40;;;6.60;79.10;;;;;;5036299;28;20049;-63
2022/03/13 06:30:16;;;;;;;13.25;8.32;;;6.60;79.80;;;;;;5036200;28;20514;-63
2022/03/13 06:32:50;;;;;;;16.63;9.30;;;6.70;80.10;;;;;;5002448;28;20057;-63
2022/03/13 06:35:21;;;;;;;16.10;8.57;;;6.70;80.10;;;;;;5036380;28;20042;-63
2022/03/13 06:37:50;;;;;;;11.00;7.45;;;6.70;79.90;;;;;;5036335;28;20227;-63
2022/03/13 06:40:20;;;;;;;9.98;6.78;;;6.80;79.90;;;;;;5036029;28;20046;-64
2022/03/13 06:42:51;;;;;;;11.23;7.03;;;6.80;79.80;;;;;;5002174;28;20507;-64
2022/03/13 06:45:21;;;;;;;11.73;7.00;;;6.90;80.00;;;;;;5036236;28;20049;-63
2022/03/13 06:47:49;;;;;;;11.02;7.72;;;7.20;80.10;;;;;;5035990;28;20091;-63
2022/03/13 06:50:20;;;;;;;11.63;7.65;;;7.60;79.40;;;;;;5018390;28;20041;-64
2022/03/13 06:52:49;;;;;;;11.43;8.32;;;8.20;78.30;;;;;;5018155;28;20468;-61
2022/03/13 06:55:20;;;;;;;12.63;8.48;;;8.70;76.50;;;;;;5017882;28;20450;-61
2022/03/13 06:57:49;;;;;;;14.18;9.00;;;9.20;74.70;;;;;;5001694;28;20076;-60
2022/03/13 07:00:18;;;;;;;14.50;10.95;;;9.70;73.90;;;;;;5018221;28;20410;-61
2022/03/13 07:02:47;;;;;;;15.23;8.45;;;10.10;72.30;;;;;;5001286;28;20054;-61
2022/03/13 07:05:16;;;;;;;11.35;9.18;;;10.50;71.20;;;;;;5001933;28;20057;-61
2022/03/13 07:07:44;;;;;;;12.23;8.20;;;10.80;70.50;;;;;;5001462;28;20513;-62
2022/03/13 07:10:12;;;;;;;9.73;7.53;;;11.10;70.30;;;;;;5001437;28;20042;-61
2022/03/13 07:12:43;;;;;;;10.30;6.50;;;11.40;70.40;;;;;;5017886;28;20183;-61
2022/03/13 07:15:13;;;;;;;10.27;5.90;;;11.60;69.40;;;;;;5035323;28;20136;-61
2022/03/13 07:17:43;;;;;;;8.60;5.53;;;11.70;69.00;;;;;;5017619;28;20080;-61
2022/03/13 07:20:11;;;;;;;8.40;5.25;;;11.80;69.20;;;;;;5035285;28;20056;-61
2022/03/13 07:22:39;;;;;;;7.78;4.75;;;11.80;66.20;;;;;;5017378;28;20041;-61
2022/03/13 07:25:07;;;;;;;6.30;4.03;;;11.80;65.30;;;;;;5035214;28;20495;-61
2022/03/13 07:27:36;;;;;;;6.00;4.22;;;11.80;64.70;;;;;;5034930;28;20052;-61
2022/03/13 07:30:05;;;;;;;4.72;3.72;;;11.90;64.80;;;;;;5017706;28;20501;-61
2022/03/13 07:32:34;;;;;;;5.50;3.22;;;12.00;64.20;;;;;;5001540;28;20072;-62
2022/03/13 07:35:02;;;;;;;4.93;3.22;;;11.80;63.70;;;;;;5034908;28;20037;-62
2022/03/13 07:37:32;;;;;;;5.38;3.55;;;11.60;63.60;;;;;;5000994;28;20136;-62
2022/03/13 07:40:01;;;;;;;4.47;3.30;;;11.60;63.80;;;;;;5034877;28;20041;-62
2022/03/13 07:42:28;;;;;;;7.95;3.55;;;11.80;64.00;;;;;;5017239;28;20065;-62
2022/03/13 07:44:56;;;;;;;8.38;4.90;;;12.00;64.00;;;;;;5034836;28;20073;-62
2022/03/13 07:47:25;;;;;;;6.43;5.30;;;12.30;63.90;;;;;;5034974;28;20494;-62
2022/03/13 07:49:54;;;;;;;7.10;4.25;;;12.60;63.90;;;;;;5016819;28;20065;-62
2022/03/13 07:52:21;;;;;;;6.10;3.65;;;12.90;63.10;;;;;;5033667;28;20480;-61
2022/03/13 07:54:49;;;;;;;5.75;3.40;;;12.90;62.00;;;;;;5017216;28;20391;-62
2022/03/13 07:57:17;;;;;;;5.05;3.17;;;13.10;62.00;;;;;;5016858;28;20037;-62
2022/03/13 07:59:47;;;;;;;4.72;3.53;;;13.20;62.10;;;;;;5016842;28;20037;-62
2022/03/13 08:02:15;;;;;;;7.50;3.92;;;13.30;62.60;;;;;;5033905;28;20061;-62
2022/03/13 08:04:42;;;;;;;5.30;3.38;;;13.30;62.50;;;;;;5033516;28;20045;-62
2022/03/13 08:07:10;;;;;;;6.10;3.92;;;13.20;63.00;;;;;;5000274;28;20068;-62
2022/03/13 08:09:39;;;;;;;4.93;3.65;;;13.10;63.30;;;;;;5016699;28;20103;-62
2022/03/13 08:12:07;;;;;;;9.02;3.70;;;13.10;63.80;;;;;;5016719;28;20045;-62
2022/03/13 08:14:34;;;;;;;5.18;3.60;;;12.90;64.20;;;;;;5034330;28;20124;-62
2022/03/13 08:17:02;;;;;;;4.15;2.88;;;12.80;64.30;;;;;;5016642;28;20133;-62
2022/03/13 08:19:30;;;;;;;3.88;3.05;;;12.60;64.10;;;;;;5000617;28;20087;-62
2022/03/13 08:21:58;;;;;;;6.80;3.22;;;12.60;64.20;;;;;;5034198;28;20046;-62
2022/03/13 08:24:26;;;;;;;5.30;3.08;;;12.60;64.30;;;;;;5000161;28;20518;-62
2022/03/13 08:26:53;;;;;;;5.22;3.20;;;12.90;64.20;;;;;;5016661;28;20103;-63
2022/03/13 08:29:23;;;;;;;5.47;3.22;;;13.00;64.30;;;;;;5034153;28;20046;-62
2022/03/13 08:31:51;;;;;;;4.22;3.03;;;13.30;64.30;;;;;;5033862;28;20037;-62
2022/03/13 08:34:19;;;;;;;5.95;3.10;;;13.60;64.00;;;;;;5033822;28;20046;-62
2022/03/13 08:36:47;;;;;;;5.82;3.15;;;13.70;63.80;;;;;;4999349;28;20045;-62
2022/03/13 08:39:14;;;;;;;4.38;3.33;;;13.90;63.70;;;;;;5033817;28;20553;-62
2022/03/13 08:41:42;;;;;;;4.93;3.28;;;14.10;64.00;;;;;;5033713;28;20033;-62
2022/03/13 08:44:10;;;;;;;5.47;3.30;;;14.10;63.60;;;;;;5034011;28;20081;-62
2022/03/13 08:46:40;;;;;;;4.78;3.13;;;14.30;63.50;;;;;;5016327;28;20053;-62
2022/03/13 08:49:09;;;;;;;4.93;3.38;;;14.30;63.50;;;;;;5016305;28;20072;-62
2022/03/13 08:51:37;;;;;;;5.45;3.95;;;14.00;63.10;;;;;;5016210;28;20045;-62
2022/03/13 08:54:05;;;;;;;4.75;3.35;;;13.80;63.40;;;;;;5033586;28;20050;-62
2022/03/13 08:56:35;;;;;;;6.63;4.20;;;13.30;63.90;;;;;;5016388;28;20345;-62
2022/03/13 08:59:03;;;;;;;6.53;4.03;;;13.30;65.00;;;;;;5016186;28;20044;-62
2022/03/13 09:01:31;;;;;;;5.63;3.80;;;13.40;65.20;;;;;;5033434;28;20069;-62
2022/03/13 09:04:02;;;;;;;9.32;4.45;;;13.30;65.50;;;;;;5016514;28;20091;-62
2022/03/13 09:06:30;;;;;;;4.53;2.97;;;13.30;65.50;;;;;;5015737;28;20049;-62
2022/03/13 09:08:57;;;;;;;5.95;3.42;;;13.00;65.40;;;;;;5016133;28;20042;-62
2022/03/13 09:11:25;;;;;;;5.50;3.65;;;13.00;66.30;;;;;;4999438;28;20092;-62
2022/03/13 09:13:53;;;;;;;7.85;4.68;;;12.90;66.80;;;;;;5033392;28;20609;-62
2022/03/13 09:16:20;;;;;;;5.45;3.45;;;12.60;66.90;;;;;;5033376;28;20076;-62
2022/03/13 09:18:48;;;;;;;5.72;3.72;;;13.00;67.40;;;;;;5033440;28;20041;-62
2022/03/13 09:21:16;;;;;;;5.57;3.03;;;13.10;67.00;;;;;;5033212;28;20064;-64
2022/03/13 09:23:44;;;;;;;5.30;4.10;;;13.20;67.10;;;;;;5016110;28;20402;-63
2022/03/13 09:26:11;;;;;;;5.10;3.30;;;13.10;67.30;;;;;;4999381;28;20140;-63
2022/03/13 09:28:39;;;;;;;5.55;4.10;;;13.20;67.80;;;;;;5016083;28;20096;-63
2022/03/13 09:31:08;;;;;;;8.25;4.53;;;13.40;67.90;;;;;;5016009;28;20518;-63
2022/03/13 09:33:36;;;;;;;5.32;3.35;;;13.50;67.50;;;;;;5015834;28;20080;-63
2022/03/13 09:36:03;;;;;;;6.38;3.63;;;13.80;67.70;;;;;;5033504;28;20076;-63
2022/03/13 09:38:31;;;;;;;6.90;4.82;;;13.60;67.90;;;;;;5015856;28;20120;-61
2022/03/13 09:40:59;;;;;;;5.32;3.58;;;13.10;68.70;;;;;;5033209;28;20050;-62
2022/03/13 09:43:32;;;;;;;6.22;3.85;;;13.10;69.60;;;;;;5033382;28;20124;-62
2022/03/13 09:46:00;;;;;;;6.55;4.07;;;12.90;69.20;;;;;;5015733;28;20053;-63
2022/03/13 09:48:28;;;;;;;5.82;3.85;;;12.60;69.90;;;;;;5010274;28;20054;-62
2022/03/13 09:50:57;;;;;;;8.05;4.55;;;12.30;70.80;;;;;;5033872;28;20048;-62
2022/03/13 09:53:25;;;;;;;7.53;4.13;;;12.30;71.60;;;;;;4995715;28;20056;-63
2022/03/13 09:55:53;;;;;;;8.05;4.35;;;12.60;71.10;;;;;;5035427;28;20157;-62
2022/03/13 09:58:20;;;;;;;7.30;4.50;;;12.40;70.50;;;;;;5022407;28;20045;-63
2022/03/13 10:00:48;;;;;;;5.00;3.47;;;12.10;71.40;;;;;;5006947;28;20041;-63
2022/03/13 10:03:15;;;;;;;6.97;4.03;;;12.10;71.60;;;;;;5014052;28;20090;-62
2022/03/13 10:05:47;;;;;;;4.75;3.50;;;11.90;72.00;;;;;;5015269;28;20038;-63
2022/03/13 10:08:17;;;;;;;6.90;4.10;;;11.70;72.00;;;;;;5013122;28;20061;-62
2022/03/13 10:10:49;;;;;;;6.20;3.60;;;11.60;72.50;;;;;;5026534;28;20037;-62
2022/03/13 10:13:50;;;;;;;5.30;3.85;;;11.60;73.10;;;;;;5036112;28;20061;-62
2022/03/13 10:16:22;;;;;;;5.78;3.42;;;11.50;73.00;;;;;;5016785;28;20450;-63
2022/03/13 10:18:50;;;;;;;5.63;3.30;;;11.40;72.40;;;;;;5026393;28;20037;-62
2022/03/13 10:21:17;;;;;;;5.22;3.78;;;11.50;73.20;;;;;;5024456;28;20372;-62
2022/03/13 10:23:48;;;;;;;7.07;3.90;;;11.70;72.70;;;;;;4998379;28;20099;-62
2022/03/13 10:26:30;;;;;;;5.95;4.18;;;12.00;73.40;;;;;;5017226;28;20455;-64
2022/03/13 10:28:59;;;;;;;8.85;5.85;;;12.50;72.50;;;;;;5007559;28;20037;-63
2022/03/13 10:31:27;;;;;;;8.45;3.85;;;12.50;71.30;;;;;;5018453;28;20045;-63
2022/03/13 10:34:00;;;;;;;6.25;3.90;;;12.70;71.20;;;;;;5023692;28;20037;-63
2022/03/13 10:36:34;;;;;;;9.05;5.65;;;12.70;71.00;;;;;;5034548;28;20048;-63
2022/03/13 10:39:03;;;;;;;8.52;5.55;;;12.70;71.00;;;;;;5018150;28;20042;-63
2022/03/13 10:41:43;;;;;;;6.60;4.90;;;12.80;71.30;;;;;;5036076;28;20544;-63
2022/03/13 10:44:21;;;;;;;14.32;8.48;;;12.80;70.80;;;;;;5018615;28;20053;-63
2022/03/13 10:46:55;;;;;;;21.60;13.20;;;12.90;70.80;;;;;;5018769;28;20045;-63
2022/03/13 10:49:41;;;;;;;9.10;5.18;;;13.10;70.10;;;;;;5018376;28;20057;-63
2022/03/13 10:52:26;;;;;;;6.30;4.05;;;13.30;69.80;;;;;;5002052;28;20498;-63
2022/03/13 10:54:55;;;;;;;4.60;3.40;;;13.30;70.30;;;;;;5018393;28;20048;-63
2022/03/13 10:57:23;;;;;;;9.23;5.63;;;13.00;71.30;;;;;;5002097;28;20050;-63
2022/03/13 11:00:16;;;;;;;8.27;5.53;;;12.90;71.80;;;;;;5034208;28;20050;-63
2022/03/13 11:02:43;;;;;;;6.63;4.53;;;12.80;72.00;;;;;;5017987;28;20505;-63
2022/03/13 11:05:11;;;;;;;5.93;4.45;;;12.60;72.10;;;;;;4985748;28;20415;-63
2022/03/13 11:07:39;;;;;;;6.13;3.88;;;12.70;73.30;;;;;;5017990;28;20037;-63
2022/03/13 11:10:08;;;;;;;7.68;4.22;;;12.60;73.30;;;;;;5035782;28;20092;-63
2022/03/13 11:12:40;;;;;;;7.63;5.22;;;12.50;73.70;;;;;;5018077;28;20057;-63
2022/03/13 11:15:11;;;;;;;7.70;4.72;;;12.70;73.80;;;;;;5035534;28;20049;-63
2022/03/13 11:17:40;;;;;;;9.57;6.93;;;12.70;73.60;;;;;;5017193;28;20099;-63
2022/03/13 11:20:09;;;;;;;11.00;4.55;;;12.70;74.00;;;;;;5017858;28;20427;-63
2022/03/13 11:22:37;;;;;;;5.32;4.03;;;12.70;74.40;;;;;;5017557;28;20403;-63
2022/03/13 11:25:06;;;;;;;6.45;5.15;;;12.80;73.40;;;;;;5035368;28;20037;-63
2022/03/13 11:27:37;;;;;;;6.35;4.68;;;12.70;74.10;;;;;;5017892;28;20069;-63
2022/03/13 11:30:08;;;;;;;7.00;3.65;;;12.80;74.90;;;;;;5035160;28;20057;-63
2022/03/13 11:32:51;;;;;;;6.53;4.13;;;12.80;73.60;;;;;;5035075;28;20049;-63
2022/03/13 11:35:20;;;;;;;6.97;4.35;;;12.90;74.00;;;;;;5017772;28;20042;-63
2022/03/13 11:37:54;;;;;;;7.50;4.15;;;13.00;73.90;;;;;;5035110;28;20515;-63
2022/03/13 11:40:40;;;;;;;5.40;3.92;;;13.00;75.90;;;;;;5017503;28;20038;-63
2022/03/13 11:43:13;;;;;;;9.23;5.88;;;12.90;75.80;;;;;;5035025;28;20037;-63
2022/03/13 11:45:59;;;;;;;7.35;4.95;;;12.60;77.30;;;;;;5018022;28;20073;-63
2022/03/13 11:48:36;;;;;;;7.57;5.72;;;12.30;78.70;;;;;;5017353;28;20057;-64
2022/03/13 11:51:05;;;;;;;14.25;6.35;;;12.10;79.10;;;;;;5034680;28;20049;-63
2022/03/13 11:53:42;;;;;;;9.23;6.65;;;11.80;79.80;;;;;;5034497;28;20145;-63
2022/03/13 11:56:27;;;;;;;7.15;5.00;;;11.80;80.80;;;;;;5017007;28;20100;-63
2022/03/13 11:59:15;;;;;;;5.05;3.92;;;12.10;81.10;;;;;;5034777;28;20045;-63
2022/03/13 12:01:43;;;;;;;5.88;3.65;;;12.10;81.20;;;;;;4984366;28;20103;-63
2022/03/13 12:04:10;;;;;;;5.90;3.90;;;12.30;80.10;;;;;;5016655;28;20061;-63
2022/03/13 12:06:46;;;;;;;6.82;4.70;;;12.20;81.70;;;;;;5034310;28;20543;-63
2022/03/13 12:09:31;;;;;;;7.20;4.53;;;12.10;82.10;;;;;;5034168;28;20128;-63
2022/03/13 12:12:07;;;;;;;8.85;5.05;;;11.80;82.80;;;;;;5033508;28;20111;-63
2022/03/13 12:14:54;;;;;;;7.15;5.05;;;12.00;82.10;;;;;;5034322;28;20065;-63
2022/03/13 12:17:25;;;;;;;10.32;5.43;;;12.20;80.90;;;;;;5016839;28;20045;-63
2022/03/13 12:19:55;;;;;;;9.30;5.40;;;12.40;80.30;;;;;;5016824;28;20053;-63
2022/03/13 12:22:26;;;;;;;5.28;3.92;;;12.40;80.90;;;;;;5016518;28;20140;-63
2022/03/13 12:24:59;;;;;;;7.57;5.40;;;12.00;82.50;;;;;;5034523;28;20379;-63
2022/03/13 12:27:27;;;;;;;11.57;6.78;;;11.70;83.90;;;;;;5034103;28;20045;-63
2022/03/13 12:29:58;;;;;;;9.73;6.00;;;11.60;84.90;;;;;;5016831;28;20136;-63
2022/03/13 12:32:30;;;;;;;7.90;5.88;;;11.60;85.40;;;;;;5016298;28;20054;-63
2022/03/13 12:34:59;;;;;;;5.65;4.35;;;11.60;85.50;;;;;;5016284;28;20056;-63
2022/03/13 12:37:29;;;;;;;8.43;5.25;;;11.50;86.00;;;;;;5034093;28;20042;-63
2022/03/13 12:40:00;;;;;;;7.68;4.70;;;11.50;86.10;;;;;;5033809;28;20494;-63
2022/03/13 12:42:30;;;;;;;10.63;6.35;;;11.50;86.60;;;;;;5033822;28;20049;-63
2022/03/13 12:45:08;;;;;;;9.18;6.38;;;11.40;86.20;;;;;;5016309;28;20045;-63
2022/03/13 12:47:40;;;;;;;8.80;5.00;;;11.40;86.00;;;;;;5000270;28;20852;-63
2022/03/13 12:50:11;;;;;;;11.35;7.38;;;11.20;86.50;;;;;;5016467;28;20127;-63
2022/03/13 12:52:41;;;;;;;16.63;9.45;;;11.30;86.70;;;;;;5016409;28;20041;-63
2022/03/13 12:55:10;;;;;;;10.73;7.43;;;11.20;87.00;;;;;;5033762;28;20380;-63
2022/03/13 12:57:38;;;;;;;6.97;5.10;;;11.30;87.30;;;;;;5016139;28;20073;-63